MSC Marianna — H0AE — position and weather

sailwx.info

Track history (hours):
 
Tides and Currents Weather Stations Pressure Air Temp Water Temp Dewpoint Dewpoint Depression Visibility Wind Speed Wind Dir Waves Ship Positions

MSC Marianna

Last reported at 2017-Nov-23 10:04 UTC. Time now 2017-Nov-24 04:05 UTC.
Position N 26°14' W 079°13'.

Length 303 m; draft 11.6 m.

Type: Ship. MMSI: 352335000.

Date/timePositionNaut miles runAvg speedWind from/ knotsBaromVisibWave heightAir tempDewpointWater temp
2017-Nov-23 10:04N 26°14' W 079°13'120.1
2017-Nov-23 10:00N 26°13' W 079°14'1020.4
2017-Nov-23 09:30N 26°07' W 079°24'1020.8
2017-Nov-23 09:00N 26°01' W 079°33'1020.9
2017-Nov-23 08:30N 25°56' W 079°43'1020.8
2017-Nov-23 08:00N 25°51' W 079°53'918.8
2017-Nov-23 07:30N 25°47' W 080°03'611.1
2017-Nov-23 07:00N 25°46' W 080°09'1 1.2
2017-Nov-23 06:30N 25°46' W 080°10'0 0.1
2017-Nov-23 05:59N 25°46' W 080°09'0 0.0
2017-Nov-23 05:29N 25°46' W 080°09'0 0.0
2017-Nov-23 04:59N 25°46' W 080°09'0 0.0
2017-Nov-23 04:29N 25°46' W 080°09'0 0.0
2017-Nov-23 03:59N 25°46' W 080°09'0 0.0
2017-Nov-23 03:29N 25°46' W 080°09'0 0.0
2017-Nov-23 02:59N 25°46' W 080°09'0 0.0
2017-Nov-23 02:29N 25°46' W 080°09'0 0.0
2017-Nov-23 01:59N 25°46' W 080°09'0 0.0
2017-Nov-23 01:29N 25°46' W 080°09'0 0.0
2017-Nov-23 00:59N 25°46' W 080°09'0 0.0
2017-Nov-23 00:29N 25°46' W 080°09'0 0.0
2017-Nov-22 23:59N 25°46' W 080°09'0 0.0
2017-Nov-22 23:29N 25°46' W 080°09'0 0.0
2017-Nov-22 22:59N 25°46' W 080°09'0 0.0
2017-Nov-22 22:29N 25°46' W 080°09'0 0.0
2017-Nov-22 21:59N 25°46' W 080°09'0 0.0
2017-Nov-22 21:29N 25°46' W 080°09'0 0.0
2017-Nov-22 20:59N 25°46' W 080°09'0 0.0
2017-Nov-22 20:29N 25°46' W 080°09'0 0.0
2017-Nov-22 19:59N 25°46' W 080°09'0 0.0
2017-Nov-22 19:29N 25°46' W 080°09'  
2017-Nov-17 14:44N 29°21' W 094°44'415.3
2017-Nov-17 14:29N 29°22' W 094°48'714.0
2017-Nov-17 14:00N 29°28' W 094°51'712.7
2017-Nov-17 13:27N 29°34' W 094°55'4 8.8
2017-Nov-17 13:00N 29°37' W 094°58'2 3.1
2017-Nov-17 12:28N 29°37' W 095°00'0 0.0
2017-Nov-17 11:58N 29°37' W 095°00'0 0.0
2017-Nov-17 11:28N 29°37' W 095°00'0 0.0
2017-Nov-17 10:58N 29°37' W 095°00'0 0.0
2017-Nov-17 10:28N 29°37' W 095°00'0 0.0
2017-Nov-17 09:58N 29°37' W 095°00'0 0.0
2017-Nov-17 09:28N 29°37' W 095°00'0 0.0
2017-Nov-17 08:58N 29°37' W 095°00'0 0.0
2017-Nov-17 08:28N 29°37' W 095°00'0 0.0
2017-Nov-17 07:58N 29°37' W 095°00'0 0.0
2017-Nov-17 07:28N 29°37' W 095°00'0 0.0
2017-Nov-17 06:58N 29°37' W 095°00'0 0.0
2017-Nov-17 06:28N 29°37' W 095°00'0 0.0
2017-Nov-17 05:58N 29°37' W 095°00'0 0.0
2017-Nov-17 05:28N 29°37' W 095°00'0 0.0
2017-Nov-17 04:58N 29°37' W 095°00'0 0.0
2017-Nov-17 04:28N 29°37' W 095°00'0 0.0
2017-Nov-17 03:58N 29°37' W 095°00'0 0.0
2017-Nov-17 03:28N 29°37' W 095°00'0 0.0
2017-Nov-17 02:58N 29°37' W 095°00'0 0.0
2017-Nov-17 02:28N 29°37' W 095°00'0 0.0
2017-Nov-17 01:58N 29°37' W 095°00'0 0.0
2017-Nov-17 01:28N 29°37' W 095°00'0 0.0
2017-Nov-17 00:58N 29°37' W 095°00'0 0.0
2017-Nov-17 00:28N 29°37' W 095°00'0 0.0
2017-Nov-16 23:58N 29°37' W 095°00'0 0.0
2017-Nov-16 23:28N 29°37' W 095°00'0 0.0
2017-Nov-16 22:58N 29°37' W 095°00'0 0.0
2017-Nov-16 22:28N 29°37' W 095°00'0 0.0
2017-Nov-16 21:58N 29°37' W 095°00'0 0.0
2017-Nov-16 21:28N 29°37' W 095°00'0 0.0
2017-Nov-16 20:58N 29°37' W 095°00'0 0.0
2017-Nov-16 20:28N 29°37' W 095°00'0 0.0
2017-Nov-16 19:58N 29°37' W 095°00'0 0.0
2017-Nov-16 19:28N 29°37' W 095°00'0 0.0
2017-Nov-16 18:58N 29°37' W 095°00'0 0.0
2017-Nov-16 18:28N 29°37' W 095°00'0 0.0
2017-Nov-16 17:58N 29°37' W 095°00'0 0.0
2017-Nov-16 17:28N 29°37' W 095°00'0 0.0
2017-Nov-16 16:58N 29°37' W 095°00'0 0.0
2017-Nov-16 16:28N 29°37' W 095°00'0 0.0
2017-Nov-16 15:58N 29°37' W 095°00'0 0.0
2017-Nov-16 15:28N 29°37' W 095°00'0 0.0
2017-Nov-16 14:58N 29°37' W 095°00'0 0.0
2017-Nov-16 14:28N 29°37' W 095°00'0 0.0
2017-Nov-16 13:58N 29°37' W 095°00'0 0.0
2017-Nov-16 13:28N 29°37' W 095°00'0 0.0
2017-Nov-16 12:58N 29°37' W 095°00'0 0.0
2017-Nov-16 12:28N 29°37' W 095°00'0 0.0
2017-Nov-16 11:58N 29°37' W 095°00'0 0.0
2017-Nov-16 11:30N 29°37' W 095°00'1 1.8
2017-Nov-16 11:00N 29°37' W 095°01'1 2.9
2017-Nov-16 10:30N 29°37' W 094°60'3 6.2
2017-Nov-16 10:00N 29°35' W 094°56'611.4
2017-Nov-16 09:30N 29°31' W 094°53'613.0
2017-Nov-16 09:01N 29°25' W 094°50'612.6
2017-Nov-16 08:30N 29°21' W 094°44'  
2017-Nov-14 02:29N 19°49' W 096°12'817.2
2017-Nov-14 02:00N 19°41' W 096°08'917.2
2017-Nov-14 01:31N 19°34' W 096°04'917.2
2017-Nov-14 01:00N 19°26' W 096°01'816.5
2017-Nov-14 00:30N 19°18' W 095°58'815.2
2017-Nov-14 00:00N 19°12' W 096°02'510.3
2017-Nov-13 23:30N 19°12' W 096°08'1 1.5
2017-Nov-13 23:00N 19°13' W 096°08'0 0.0
2017-Nov-13 22:30N 19°13' W 096°08'0 0.0
2017-Nov-13 22:00N 19°13' W 096°08'  
Track history (hours):
 
Tides and Currents Weather Stations Pressure Air Temp Water Temp Dewpoint Dewpoint Depression Visibility Wind Speed Wind Dir Waves Ship Positions

MSC Marianna

Last reported at 2017-Nov-23 10:04 UTC. Time now 2017-Nov-24 04:05 UTC.
Position N 26°14' W 079°13'.

Length 303 m; draft 11.6 m.

Type: Ship. MMSI: 352335000.

Date/timePositionNaut miles runAvg speedWind from/ knotsBaromVisibWave heightAir tempDewpointWater temp
2017-Nov-23 10:04N 26°14' W 079°13'120.1
2017-Nov-23 10:00N 26°13' W 079°14'1020.4
2017-Nov-23 09:30N 26°07' W 079°24'1020.8
2017-Nov-23 09:00N 26°01' W 079°33'1020.9
2017-Nov-23 08:30N 25°56' W 079°43'1020.8
2017-Nov-23 08:00N 25°51' W 079°53'918.8
2017-Nov-23 07:30N 25°47' W 080°03'611.1
2017-Nov-23 07:00N 25°46' W 080°09'1 1.2
2017-Nov-23 06:30N 25°46' W 080°10'0 0.1
2017-Nov-23 05:59N 25°46' W 080°09'0 0.0
2017-Nov-23 05:29N 25°46' W 080°09'0 0.0
2017-Nov-23 04:59N 25°46' W 080°09'0 0.0
2017-Nov-23 04:29N 25°46' W 080°09'0 0.0
2017-Nov-23 03:59N 25°46' W 080°09'0 0.0
2017-Nov-23 03:29N 25°46' W 080°09'0 0.0
2017-Nov-23 02:59N 25°46' W 080°09'0 0.0
2017-Nov-23 02:29N 25°46' W 080°09'0 0.0
2017-Nov-23 01:59N 25°46' W 080°09'0 0.0
2017-Nov-23 01:29N 25°46' W 080°09'0 0.0
2017-Nov-23 00:59N 25°46' W 080°09'0 0.0
2017-Nov-23 00:29N 25°46' W 080°09'0 0.0
2017-Nov-22 23:59N 25°46' W 080°09'0 0.0
2017-Nov-22 23:29N 25°46' W 080°09'0 0.0
2017-Nov-22 22:59N 25°46' W 080°09'0 0.0
2017-Nov-22 22:29N 25°46' W 080°09'0 0.0
2017-Nov-22 21:59N 25°46' W 080°09'0 0.0
2017-Nov-22 21:29N 25°46' W 080°09'0 0.0
2017-Nov-22 20:59N 25°46' W 080°09'0 0.0
2017-Nov-22 20:29N 25°46' W 080°09'0 0.0
2017-Nov-22 19:59N 25°46' W 080°09'0 0.0
2017-Nov-22 19:29N 25°46' W 080°09'  
2017-Nov-17 14:44N 29°21' W 094°44'415.3
2017-Nov-17 14:29N 29°22' W 094°48'714.0
2017-Nov-17 14:00N 29°28' W 094°51'712.7
2017-Nov-17 13:27N 29°34' W 094°55'4 8.8
2017-Nov-17 13:00N 29°37' W 094°58'2 3.1
2017-Nov-17 12:28N 29°37' W 095°00'0 0.0
2017-Nov-17 11:58N 29°37' W 095°00'0 0.0
2017-Nov-17 11:28N 29°37' W 095°00'0 0.0
2017-Nov-17 10:58N 29°37' W 095°00'0 0.0
2017-Nov-17 10:28N 29°37' W 095°00'0 0.0
2017-Nov-17 09:58N 29°37' W 095°00'0 0.0
2017-Nov-17 09:28N 29°37' W 095°00'0 0.0
2017-Nov-17 08:58N 29°37' W 095°00'0 0.0
2017-Nov-17 08:28N 29°37' W 095°00'0 0.0
2017-Nov-17 07:58N 29°37' W 095°00'0 0.0
2017-Nov-17 07:28N 29°37' W 095°00'0 0.0
2017-Nov-17 06:58N 29°37' W 095°00'0 0.0
2017-Nov-17 06:28N 29°37' W 095°00'0 0.0
2017-Nov-17 05:58N 29°37' W 095°00'0 0.0
2017-Nov-17 05:28N 29°37' W 095°00'0 0.0
2017-Nov-17 04:58N 29°37' W 095°00'0 0.0
2017-Nov-17 04:28N 29°37' W 095°00'0 0.0
2017-Nov-17 03:58N 29°37' W 095°00'0 0.0
2017-Nov-17 03:28N 29°37' W 095°00'0 0.0
2017-Nov-17 02:58N 29°37' W 095°00'0 0.0
2017-Nov-17 02:28N 29°37' W 095°00'0 0.0
2017-Nov-17 01:58N 29°37' W 095°00'0 0.0
2017-Nov-17 01:28N 29°37' W 095°00'0 0.0
2017-Nov-17 00:58N 29°37' W 095°00'0 0.0
2017-Nov-17 00:28N 29°37' W 095°00'0 0.0
2017-Nov-16 23:58N 29°37' W 095°00'0 0.0
2017-Nov-16 23:28N 29°37' W 095°00'0 0.0
2017-Nov-16 22:58N 29°37' W 095°00'0 0.0
2017-Nov-16 22:28N 29°37' W 095°00'0 0.0
2017-Nov-16 21:58N 29°37' W 095°00'0 0.0
2017-Nov-16 21:28N 29°37' W 095°00'0 0.0
2017-Nov-16 20:58N 29°37' W 095°00'0 0.0
2017-Nov-16 20:28N 29°37' W 095°00'0 0.0
2017-Nov-16 19:58N 29°37' W 095°00'0 0.0
2017-Nov-16 19:28N 29°37' W 095°00'0 0.0
2017-Nov-16 18:58N 29°37' W 095°00'0 0.0
2017-Nov-16 18:28N 29°37' W 095°00'0 0.0
2017-Nov-16 17:58N 29°37' W 095°00'0 0.0
2017-Nov-16 17:28N 29°37' W 095°00'0 0.0
2017-Nov-16 16:58N 29°37' W 095°00'0 0.0
2017-Nov-16 16:28N 29°37' W 095°00'0 0.0
2017-Nov-16 15:58N 29°37' W 095°00'0 0.0
2017-Nov-16 15:28N 29°37' W 095°00'0 0.0
2017-Nov-16 14:58N 29°37' W 095°00'0 0.0
2017-Nov-16 14:28N 29°37' W 095°00'0 0.0
2017-Nov-16 13:58N 29°37' W 095°00'0 0.0
2017-Nov-16 13:28N 29°37' W 095°00'0 0.0
2017-Nov-16 12:58N 29°37' W 095°00'0 0.0
2017-Nov-16 12:28N 29°37' W 095°00'0 0.0
2017-Nov-16 11:58N 29°37' W 095°00'0 0.0
2017-Nov-16 11:30N 29°37' W 095°00'1 1.8
2017-Nov-16 11:00N 29°37' W 095°01'1 2.9
2017-Nov-16 10:30N 29°37' W 094°60'3 6.2
2017-Nov-16 10:00N 29°35' W 094°56'611.4
2017-Nov-16 09:30N 29°31' W 094°53'613.0
2017-Nov-16 09:01N 29°25' W 094°50'612.6
2017-Nov-16 08:30N 29°21' W 094°44'  
2017-Nov-14 02:29N 19°49' W 096°12'817.2
2017-Nov-14 02:00N 19°41' W 096°08'917.2
2017-Nov-14 01:31N 19°34' W 096°04'917.2
2017-Nov-14 01:00N 19°26' W 096°01'816.5
2017-Nov-14 00:30N 19°18' W 095°58'815.2
2017-Nov-14 00:00N 19°12' W 096°02'510.3
2017-Nov-13 23:30N 19°12' W 096°08'1 1.5
2017-Nov-13 23:00N 19°13' W 096°08'0 0.0
2017-Nov-13 22:30N 19°13' W 096°08'0 0.0
2017-Nov-13 22:00N 19°13' W 096°08'  

Dump ship's entire track history